Terminal Aerodrome Forecast
Issued by NWS

Home | Current Version | Previous Version | Text Only | Print | Product List | Glossary Off
Versions: 1 2 3 4 5 6 7 8 9 10 11 12 13 14 15 16 17 18 19 20 21 22 23 24 25 26 27 28 29

000
FTUS44 KLZK 031500 AAA
TAFLIT
TAF AMD
KLIT 031511Z 0315/0412 23007KT 5SM -RA BKN020 OVC040
      TEMPO 0315/0317 VRB15G30KT 1SM TSRA BKN010CB OVC080
     FM031700 24009G16KT P6SM VCTS SCT040CB BKN100 OVC250
     FM031900 24009G16KT P6SM -TSRA SCT040CB BKN100 OVC250=

USA.gov is the U.S. government's official web portal to all federal, state and local government web resources and services.